Time;durP1;ratioP1;P1;durP2;ratioP2;P2;SDS_P1;SDS_P2;PMS_P1;PMS_P2;Temp;Humidity;BMP_temperature;BMP_pressure;BME280_temperature;BME280_humidity;BME280_pressure;Samples;Min_cycle;Max_cycle;Signal;HPM_P1;HPM_P2
2023/08/05 00:02:17;;;;;;;3.03;1.23;;;16.40;99.80;;;;;;5058052;28;20039;-76
2023/08/05 00:04:44;;;;;;;0.80;0.80;;;16.40;99.90;;;;;;5076267;28;20039;-75
2023/08/05 00:07:09;;;;;;;1.17;1.08;;;16.40;99.90;;;;;;5081685;28;20024;-76
2023/08/05 00:09:35;;;;;;;1.40;1.00;;;16.40;99.90;;;;;;5090184;28;20104;-78
2023/08/05 00:12:01;;;;;;;2.25;1.40;;;16.40;99.90;;;;;;5099332;28;20409;-75
2023/08/05 00:14:27;;;;;;;2.30;1.42;;;16.40;99.90;;;;;;5066242;28;20690;-76
2023/08/05 00:16:52;;;;;;;1.00;0.77;;;16.40;99.90;;;;;;5063632;28;20021;-75
2023/08/05 00:19:18;;;;;;;1.52;1.42;;;16.40;99.90;;;;;;5063469;28;20032;-75
2023/08/05 00:21:44;;;;;;;2.88;1.02;;;16.30;99.90;;;;;;5064892;28;20021;-75
2023/08/05 00:24:10;;;;;;;3.97;1.05;;;16.40;99.90;;;;;;5075239;28;20033;-76
2023/08/05 00:26:36;;;;;;;1.13;1.02;;;16.40;99.90;;;;;;5084550;28;20029;-75
2023/08/05 00:29:01;;;;;;;2.63;1.00;;;16.40;99.90;;;;;;5085550;28;20024;-75
2023/08/05 00:31:27;;;;;;;1.17;1.08;;;16.40;99.90;;;;;;5084096;28;20306;-75
2023/08/05 00:33:53;;;;;;;1.70;0.93;;;16.40;99.90;;;;;;5076529;28;20467;-78
2023/08/05 00:36:18;;;;;;;1.38;1.10;;;16.40;99.90;;;;;;5064244;28;20029;-75
2023/08/05 00:38:44;;;;;;;1.27;1.15;;;16.40;99.90;;;;;;5093289;28;20028;-77
2023/08/05 00:41:10;;;;;;;1.75;1.13;;;16.40;99.90;;;;;;5097689;28;20024;-74
2023/08/05 00:43:35;;;;;;;3.67;1.17;;;16.40;99.90;;;;;;5093676;28;20208;-75
2023/08/05 00:46:01;;;;;;;1.55;1.30;;;16.40;99.90;;;;;;5070658;28;20586;-75
2023/08/05 00:48:27;;;;;;;0.90;0.90;;;16.40;99.90;;;;;;5057359;28;20105;-75
2023/08/05 00:50:54;;;;;;;1.13;1.02;;;16.40;99.90;;;;;;5056296;28;20058;-76
2023/08/05 00:53:23;;;;;;;3.95;1.00;;;16.40;99.90;;;;;;5057156;28;20021;-76
2023/08/05 00:55:51;;;;;;;2.92;1.20;;;16.30;99.90;;;;;;5073236;28;20028;-76
2023/08/05 00:58:19;;;;;;;1.50;1.13;;;16.30;99.90;;;;;;5076371;28;20115;-74
2023/08/05 01:00:44;;;;;;;2.00;1.08;;;16.30;99.90;;;;;;5076448;28;20482;-76
2023/08/05 01:03:10;;;;;;;1.10;1.00;;;16.30;99.90;;;;;;5077030;28;20112;-75
2023/08/05 01:05:37;;;;;;;0.82;0.82;;;16.20;99.90;;;;;;5075571;28;20029;-75
2023/08/05 01:08:04;;;;;;;0.75;0.73;;;16.20;99.90;;;;;;5080381;28;20027;-76
2023/08/05 01:10:30;;;;;;;1.75;0.85;;;16.20;99.90;;;;;;5091535;28;20077;-74
2023/08/05 01:12:55;;;;;;;2.05;1.10;;;16.20;99.90;;;;;;5096286;28;20019;-75
2023/08/05 01:15:21;;;;;;;1.88;1.13;;;16.30;99.90;;;;;;5082836;28;20028;-74
2023/08/05 01:17:47;;;;;;;0.90;0.88;;;16.30;99.90;;;;;;5068478;28;20513;-75
2023/08/05 01:20:15;;;;;;;1.95;1.30;;;16.30;99.90;;;;;;5076366;28;20028;-76
2023/08/05 01:22:43;;;;;;;1.02;0.93;;;16.30;99.90;;;;;;5075279;28;20067;-75
2023/08/05 01:25:21;;;;;;;2.42;1.17;;;16.20;99.90;;;;;;5074598;28;20051;-76
2023/08/05 01:27:47;;;;;;;1.15;1.05;;;16.20;99.90;;;;;;5066196;28;20023;-76
2023/08/05 01:30:13;;;;;;;2.72;1.20;;;16.20;99.90;;;;;;5056505;28;20032;-75
2023/08/05 01:32:40;;;;;;;1.65;1.48;;;16.10;99.90;;;;;;5077652;28;20037;-76
2023/08/05 01:35:09;;;;;;;5.45;1.75;;;16.20;99.90;;;;;;5068105;28;20021;-76
2023/08/05 01:37:35;;;;;;;1.60;1.23;;;16.10;99.90;;;;;;5073291;28;20027;-75
2023/08/05 01:40:02;;;;;;;1.35;1.23;;;16.20;99.90;;;;;;5087223;28;20031;-75
2023/08/05 01:42:28;;;;;;;2.08;1.67;;;16.20;99.90;;;;;;5079406;28;20024;-76
2023/08/05 01:44:53;;;;;;;2.72;1.67;;;16.20;99.90;;;;;;5075517;28;20083;-76
2023/08/05 01:47:19;;;;;;;5.07;2.08;;;16.20;99.90;;;;;;5074365;28;20020;-75
2023/08/05 01:49:45;;;;;;;1.77;1.67;;;16.30;99.90;;;;;;5075519;28;20097;-75
2023/08/05 01:52:10;;;;;;;2.83;1.70;;;16.20;99.90;;;;;;5074830;28;20048;-75
2023/08/05 01:54:36;;;;;;;3.97;1.60;;;16.20;99.90;;;;;;5075880;28;20044;-75
2023/08/05 01:57:02;;;;;;;1.65;1.55;;;16.20;99.90;;;;;;5075485;28;20036;-75
2023/08/05 01:59:27;;;;;;;1.90;1.65;;;16.20;99.90;;;;;;5075016;28;20430;-75
2023/08/05 02:01:53;;;;;;;3.38;2.20;;;16.20;99.90;;;;;;5081679;28;20054;-75
2023/08/05 02:04:19;;;;;;;1.58;1.48;;;16.20;99.90;;;;;;5077950;28;20044;-75
2023/08/05 02:06:44;;;;;;;1.30;0.88;;;16.20;99.90;;;;;;5059268;28;20049;-75
2023/08/05 02:09:10;;;;;;;4.50;2.05;;;16.10;99.90;;;;;;5088007;28;20053;-76
2023/08/05 02:11:36;;;;;;;2.90;2.40;;;16.10;99.90;;;;;;5095900;28;20150;-77
2023/08/05 02:14:02;;;;;;;4.07;2.90;;;16.10;99.90;;;;;;5084378;28;20029;-75
2023/08/05 02:16:28;;;;;;;2.80;2.60;;;16.00;99.90;;;;;;5076219;28;20584;-75
2023/08/05 02:18:53;;;;;;;2.40;2.20;;;16.00;99.90;;;;;;5075157;28;20068;-75
2023/08/05 02:21:21;;;;;;;3.53;2.25;;;16.00;99.90;;;;;;5076077;28;20043;-75
2023/08/05 02:23:46;;;;;;;1.77;1.67;;;16.00;99.90;;;;;;5070832;28;20021;-76
2023/08/05 02:26:12;;;;;;;1.88;1.52;;;16.00;99.90;;;;;;5056291;28;20031;-75
2023/08/05 02:28:38;;;;;;;1.13;1.02;;;16.00;99.90;;;;;;5057410;28;20085;-76
2023/08/05 02:31:03;;;;;;;1.27;1.13;;;15.90;99.90;;;;;;5073679;28;20028;-75
2023/08/05 02:33:29;;;;;;;0.85;0.80;;;15.90;99.90;;;;;;5093116;28;20030;-75
2023/08/05 02:35:58;;;;;;;1.60;1.50;;;15.90;99.90;;;;;;5077824;28;20028;-74
2023/08/05 02:38:24;;;;;;;1.50;1.35;;;15.90;99.90;;;;;;5081506;28;20029;-75
2023/08/05 02:40:49;;;;;;;2.40;1.77;;;15.80;99.90;;;;;;5094913;28;20039;-76
2023/08/05 02:43:15;;;;;;;1.40;1.25;;;15.80;99.90;;;;;;5095020;28;20046;-76
2023/08/05 02:45:41;;;;;;;1.30;1.20;;;15.90;99.90;;;;;;5078039;28;20343;-76
2023/08/05 02:48:07;;;;;;;1.38;0.90;;;15.90;99.90;;;;;;5074154;28;20090;-76
2023/08/05 02:50:33;;;;;;;1.48;1.08;;;15.80;99.90;;;;;;5074922;28;20023;-76
2023/08/05 02:52:58;;;;;;;1.33;1.00;;;15.80;99.90;;;;;;5074835;28;20193;-75
2023/08/05 02:55:24;;;;;;;2.05;0.95;;;15.80;99.90;;;;;;5066775;28;20029;-75
2023/08/05 02:57:50;;;;;;;0.52;0.50;;;15.90;99.90;;;;;;5076478;28;20104;-76
2023/08/05 03:00:15;;;;;;;0.40;0.40;;;15.90;99.90;;;;;;5075516;28;20111;-76
2023/08/05 03:02:41;;;;;;;0.88;0.77;;;15.90;99.90;;;;;;5075067;28;20056;-76
2023/08/05 03:05:07;;;;;;;0.65;0.65;;;15.90;99.90;;;;;;5072725;28;20024;-75
2023/08/05 03:07:32;;;;;;;2.20;0.73;;;15.80;99.90;;;;;;5081963;28;20504;-74
2023/08/05 03:09:58;;;;;;;1.95;1.25;;;15.80;99.90;;;;;;5081131;28;20025;-75
2023/08/05 03:12:24;;;;;;;0.70;0.70;;;15.80;99.90;;;;;;5058024;28;20021;-76
2023/08/05 03:14:51;;;;;;;0.60;0.60;;;15.80;99.90;;;;;;5074093;28;20021;-76
2023/08/05 03:17:17;;;;;;;0.50;0.50;;;15.70;99.90;;;;;;5074321;28;20043;-76
2023/08/05 03:19:43;;;;;;;0.43;0.43;;;15.70;99.90;;;;;;5070148;28;20226;-78
2023/08/05 03:22:08;;;;;;;0.65;0.65;;;15.70;99.90;;;;;;5073600;28;20020;-78
2023/08/05 03:24:34;;;;;;;0.70;0.60;;;15.70;99.90;;;;;;5073456;28;20060;-76
2023/08/05 03:27:00;;;;;;;0.50;0.50;;;15.60;99.90;;;;;;5074013;28;20028;-75
2023/08/05 03:29:25;;;;;;;1.00;0.50;;;15.60;99.90;;;;;;5073376;28;20024;-75
2023/08/05 03:31:51;;;;;;;2.10;1.02;;;15.60;99.90;;;;;;5073430;28;20032;-76
2023/08/05 03:34:17;;;;;;;0.50;0.50;;;15.60;99.90;;;;;;5073515;28;20024;-76
2023/08/05 03:36:43;;;;;;;2.40;1.17;;;15.60;99.90;;;;;;5074686;28;20503;-76
2023/08/05 03:39:09;;;;;;;0.80;0.80;;;15.60;99.90;;;;;;5081854;28;20029;-76
2023/08/05 03:41:34;;;;;;;1.27;0.70;;;15.60;99.90;;;;;;5073555;28;20025;-76
2023/08/05 03:44:01;;;;;;;0.65;0.65;;;15.60;99.90;;;;;;5071909;28;20032;-76
2023/08/05 03:46:28;;;;;;;0.95;0.93;;;15.60;99.90;;;;;;5056854;28;20028;-75
2023/08/05 03:48:54;;;;;;;5.25;1.30;;;15.50;99.90;;;;;;5052710;28;20048;-76
2023/08/05 03:51:20;;;;;;;1.60;1.08;;;15.40;99.90;;;;;;5053721;28;20437;-76
2023/08/05 03:53:45;;;;;;;1.35;1.02;;;15.30;99.90;;;;;;5053859;28;20049;-76
2023/08/05 03:56:11;;;;;;;0.80;0.80;;;15.20;99.90;;;;;;5058142;28;20025;-75
2023/08/05 03:58:37;;;;;;;2.55;1.05;;;15.20;99.90;;;;;;5057949;28;20025;-76
2023/08/05 04:01:02;;;;;;;1.52;1.42;;;15.10;99.90;;;;;;5068349;28;20036;-77
2023/08/05 04:03:30;;;;;;;2.20;1.42;;;15.10;99.90;;;;;;5090065;28;20020;-76
2023/08/05 04:05:56;;;;;;;1.50;1.33;;;15.10;99.90;;;;;;5070152;28;20024;-77
2023/08/05 04:08:22;;;;;;;1.20;1.10;;;15.10;99.90;;;;;;5077529;28;20361;-76
2023/08/05 04:10:48;;;;;;;1.10;1.10;;;15.00;99.90;;;;;;5087926;28;20109;-75
2023/08/05 04:13:16;;;;;;;1.20;1.10;;;15.00;99.90;;;;;;5055628;28;20029;-76
2023/08/05 04:15:42;;;;;;;1.20;1.20;;;15.00;99.90;;;;;;5068633;28;20101;-76
2023/08/05 04:18:08;;;;;;;0.88;0.88;;;15.00;99.90;;;;;;5072637;28;20354;-76
2023/08/05 04:20:36;;;;;;;0.90;0.90;;;15.00;99.90;;;;;;5060075;28;20040;-77
2023/08/05 04:23:04;;;;;;;1.05;1.02;;;15.00;99.90;;;;;;5055353;28;20108;-77
2023/08/05 04:25:31;;;;;;;1.50;1.40;;;15.00;99.90;;;;;;5056969;28;20021;-76
2023/08/05 04:27:57;;;;;;;1.42;1.33;;;15.00;99.90;;;;;;5071896;28;20025;-76
2023/08/05 04:30:23;;;;;;;1.35;1.35;;;15.00;99.90;;;;;;5057210;28;20386;-75
2023/08/05 04:32:49;;;;;;;2.60;1.58;;;15.10;99.90;;;;;;5074631;28;20027;-76
2023/08/05 04:35:14;;;;;;;1.45;1.40;;;15.10;99.90;;;;;;5067546;28;20111;-76
2023/08/05 04:37:40;;;;;;;1.85;1.75;;;15.00;99.90;;;;;;5057464;28;20023;-77
2023/08/05 04:40:06;;;;;;;1.73;1.58;;;15.00;99.90;;;;;;5083442;28;20504;-77
2023/08/05 04:42:32;;;;;;;2.28;2.08;;;15.10;99.90;;;;;;5052944;28;20472;-76
2023/08/05 04:44:57;;;;;;;2.20;1.85;;;15.10;99.90;;;;;;5052981;28;20072;-76
2023/08/05 04:47:23;;;;;;;2.03;1.92;;;15.10;99.90;;;;;;5066761;28;20063;-77
2023/08/05 04:49:49;;;;;;;1.80;1.70;;;15.10;99.90;;;;;;5073530;28;20340;-76
2023/08/05 04:52:14;;;;;;;2.40;2.20;;;15.10;99.90;;;;;;5073395;28;20426;-77
2023/08/05 04:54:43;;;;;;;2.47;2.28;;;15.10;99.90;;;;;;5072191;28;20028;-77
2023/08/05 04:57:09;;;;;;;2.55;2.30;;;15.10;99.90;;;;;;5054799;28;20029;-74
2023/08/05 04:59:35;;;;;;;3.63;2.80;;;15.10;99.90;;;;;;5070942;28;20073;-76
2023/08/05 05:02:01;;;;;;;2.22;2.10;;;15.10;99.90;;;;;;5078114;28;20029;-75
2023/08/05 05:04:27;;;;;;;5.90;3.25;;;15.20;99.90;;;;;;5076800;28;20358;-76
2023/08/05 05:06:52;;;;;;;3.63;3.33;;;15.20;99.90;;;;;;5079678;28;20020;-76
2023/08/05 05:09:18;;;;;;;3.03;2.83;;;15.20;99.90;;;;;;5089264;28;20020;-75
2023/08/05 05:11:44;;;;;;;3.13;2.92;;;15.20;99.90;;;;;;5088853;28;20024;-75
2023/08/05 05:14:09;;;;;;;3.03;2.80;;;15.30;99.90;;;;;;5068813;28;20076;-75
2023/08/05 05:16:35;;;;;;;3.25;2.60;;;15.30;99.90;;;;;;5067253;28;20020;-77
2023/08/05 05:19:01;;;;;;;3.10;2.85;;;15.40;99.90;;;;;;5074387;28;20059;-76
2023/08/05 05:21:27;;;;;;;2.50;2.20;;;15.40;99.90;;;;;;5071181;28;20043;-77
2023/08/05 05:23:52;;;;;;;4.50;3.45;;;15.40;99.90;;;;;;5062523;28;20020;-77
2023/08/05 05:26:18;;;;;;;3.00;2.80;;;15.40;99.90;;;;;;5075730;28;20067;-76
2023/08/05 05:28:44;;;;;;;3.53;3.20;;;15.40;99.90;;;;;;5070546;28;20028;-77
2023/08/05 05:31:09;;;;;;;3.42;3.00;;;15.40;99.90;;;;;;5059461;28;20032;-76
2023/08/05 05:33:36;;;;;;;3.78;3.47;;;15.50;99.90;;;;;;5058487;28;20091;-75
2023/08/05 05:36:01;;;;;;;3.30;3.00;;;15.50;99.90;;;;;;5069472;28;20029;-76
2023/08/05 05:38:27;;;;;;;3.60;3.30;;;15.50;99.90;;;;;;5084343;28;20107;-76
2023/08/05 05:40:56;;;;;;;3.53;3.22;;;15.60;99.90;;;;;;5082316;28;20420;-75
2023/08/05 05:43:25;;;;;;;4.78;4.00;;;15.60;99.90;;;;;;5061789;28;20036;-75
2023/08/05 05:45:53;;;;;;;4.53;3.58;;;15.60;99.90;;;;;;5065462;28;20028;-77
2023/08/05 05:48:19;;;;;;;3.97;3.60;;;15.60;99.90;;;;;;5079841;28;20020;-77
2023/08/05 05:50:45;;;;;;;2.72;2.55;;;15.60;99.90;;;;;;5077894;28;20894;-76
2023/08/05 05:53:13;;;;;;;3.08;2.83;;;15.60;99.90;;;;;;5077733;28;20031;-76
2023/08/05 05:55:42;;;;;;;3.03;2.83;;;15.60;99.90;;;;;;5077928;28;20024;-75
2023/08/05 05:58:08;;;;;;;3.95;3.65;;;15.70;99.90;;;;;;5080537;28;20029;-75
2023/08/05 06:00:37;;;;;;;3.63;3.33;;;15.70;99.90;;;;;;5064708;28;20029;-77
2023/08/05 06:03:03;;;;;;;3.97;3.55;;;15.70;99.90;;;;;;5061258;28;20394;-76
2023/08/05 06:05:30;;;;;;;3.38;3.17;;;15.70;99.90;;;;;;5074144;28;20036;-76
2023/08/05 06:07:55;;;;;;;4.05;3.70;;;15.70;99.90;;;;;;5086498;28;20021;-77
2023/08/05 06:10:21;;;;;;;3.78;3.47;;;15.80;99.90;;;;;;5075190;28;20075;-76
2023/08/05 06:12:47;;;;;;;2.70;2.55;;;15.70;99.90;;;;;;5076763;28;20024;-76
2023/08/05 06:15:12;;;;;;;3.40;2.90;;;15.70;99.90;;;;;;5076545;28;20020;-76
2023/08/05 06:17:39;;;;;;;4.65;4.25;;;15.70;99.90;;;;;;5065094;28;20035;-75
2023/08/05 06:20:06;;;;;;;3.95;3.65;;;15.80;99.90;;;;;;5069767;28;20084;-76
2023/08/05 06:22:31;;;;;;;3.10;2.88;;;15.70;99.90;;;;;;5058105;28;20121;-77
2023/08/05 06:24:57;;;;;;;5.05;3.90;;;15.70;99.90;;;;;;5074534;28;20060;-75
2023/08/05 06:27:23;;;;;;;3.50;3.20;;;15.80;99.90;;;;;;5077242;28;20295;-77
2023/08/05 06:29:48;;;;;;;5.30;4.00;;;15.80;99.90;;;;;;5063273;28;20025;-76
2023/08/05 06:32:14;;;;;;;4.22;3.90;;;15.80;99.90;;;;;;5057676;28;20029;-77
2023/08/05 06:34:40;;;;;;;3.40;3.10;;;15.80;99.90;;;;;;5058092;28;20033;-76
2023/08/05 06:37:06;;;;;;;3.97;3.67;;;15.90;99.90;;;;;;5077342;28;20021;-76
2023/08/05 06:39:35;;;;;;;5.07;4.68;;;15.90;99.90;;;;;;5087030;28;20028;-75
2023/08/05 06:42:01;;;;;;;4.75;3.80;;;15.90;99.90;;;;;;5069336;28;20462;-77
2023/08/05 06:44:26;;;;;;;3.67;3.38;;;15.90;99.90;;;;;;5067638;28;20082;-76
2023/08/05 06:46:52;;;;;;;4.15;3.85;;;15.90;99.90;;;;;;5075119;28;20021;-76
2023/08/05 06:49:18;;;;;;;4.22;3.75;;;15.90;99.90;;;;;;5070595;28;20020;-75
2023/08/05 06:51:44;;;;;;;4.63;4.22;;;15.90;99.90;;;;;;5073378;28;20032;-76
2023/08/05 06:54:11;;;;;;;4.05;3.75;;;15.90;99.90;;;;;;5054941;28;20025;-75
2023/08/05 06:56:37;;;;;;;5.65;4.30;;;15.90;99.90;;;;;;5072350;28;20024;-76
2023/08/05 06:59:03;;;;;;;4.45;4.05;;;16.00;99.90;;;;;;5054992;28;20335;-77
2023/08/05 07:01:28;;;;;;;4.10;3.75;;;16.10;99.90;;;;;;5055594;28;20051;-77
2023/08/05 07:03:54;;;;;;;5.57;5.00;;;16.20;99.90;;;;;;5065891;28;20386;-76
2023/08/05 07:06:19;;;;;;;4.38;3.97;;;16.20;99.90;;;;;;5065083;28;20033;-76
2023/08/05 07:08:45;;;;;;;4.68;4.28;;;16.30;99.90;;;;;;5082563;28;20028;-77
2023/08/05 07:11:11;;;;;;;3.78;3.47;;;16.30;99.90;;;;;;5057001;28;20032;-76
2023/08/05 07:13:37;;;;;;;3.50;3.30;;;16.30;99.90;;;;;;5065732;28;20021;-77
2023/08/05 07:16:03;;;;;;;4.80;4.40;;;16.30;99.90;;;;;;5067368;28;20116;-76
2023/08/05 07:18:30;;;;;;;4.07;3.67;;;16.30;99.90;;;;;;5071845;28;20028;-76
2023/08/05 07:20:56;;;;;;;6.28;4.30;;;16.30;99.90;;;;;;5075023;28;20024;-76
2023/08/05 07:23:22;;;;;;;3.85;3.47;;;16.40;99.90;;;;;;5075580;28;20021;-75
2023/08/05 07:25:48;;;;;;;5.05;3.72;;;16.40;99.90;;;;;;5061049;28;20035;-76
2023/08/05 07:28:14;;;;;;;5.03;3.65;;;16.40;99.90;;;;;;5055916;28;20037;-77
2023/08/05 07:30:40;;;;;;;4.85;3.50;;;16.60;99.90;;;;;;5072751;28;20025;-74
2023/08/05 07:33:09;;;;;;;4.60;4.20;;;16.60;99.90;;;;;;5060593;28;20025;-77
2023/08/05 07:35:35;;;;;;;3.78;3.28;;;16.70;99.90;;;;;;5080654;28;20090;-75
2023/08/05 07:38:04;;;;;;;3.72;3.10;;;16.70;99.90;;;;;;5094311;28;20385;-76
2023/08/05 07:40:30;;;;;;;3.40;3.10;;;16.60;99.90;;;;;;5084353;28;20020;-76
2023/08/05 07:42:56;;;;;;;3.60;2.92;;;16.60;99.90;;;;;;5075218;28;20032;-75
2023/08/05 07:45:22;;;;;;;4.95;3.63;;;16.60;99.90;;;;;;5079064;28;20043;-75
2023/08/05 07:47:48;;;;;;;3.95;3.33;;;16.70;99.90;;;;;;5087497;28;20020;-75
2023/08/05 07:50:21;;;;;;;3.50;3.20;;;16.70;99.90;;;;;;5080845;28;20037;-76
2023/08/05 07:52:47;;;;;;;3.05;2.85;;;16.70;99.90;;;;;;5056372;28;20343;-76
2023/08/05 07:55:12;;;;;;;3.85;3.03;;;16.70;99.90;;;;;;5067511;28;20050;-75
2023/08/05 07:57:40;;;;;;;3.97;2.90;;;16.70;99.90;;;;;;5085235;28;20012;-75
2023/08/05 08:00:08;;;;;;;4.53;2.92;;;16.70;99.90;;;;;;5069479;28;20028;-75
2023/08/05 08:02:34;;;;;;;6.28;3.17;;;16.70;99.90;;;;;;5055163;28;20037;-77
2023/08/05 08:05:04;;;;;;;3.28;2.95;;;16.70;99.90;;;;;;5067536;28;20025;-77
2023/08/05 08:07:30;;;;;;;3.25;2.85;;;16.70;99.90;;;;;;5080318;28;20070;-75
2023/08/05 08:09:59;;;;;;;5.25;3.53;;;16.80;99.90;;;;;;5083820;28;20028;-76
2023/08/05 08:12:24;;;;;;;4.28;3.60;;;16.80;99.90;;;;;;5076156;28;20059;-78
2023/08/05 08:14:50;;;;;;;3.67;3.20;;;16.80;99.90;;;;;;5055363;28;20021;-77
2023/08/05 08:17:16;;;;;;;7.70;3.80;;;16.80;99.90;;;;;;5059705;28;20220;-76
2023/08/05 08:19:43;;;;;;;3.53;3.08;;;16.80;99.90;;;;;;5069025;28;20078;-77
2023/08/05 08:22:08;;;;;;;3.83;3.47;;;16.70;99.90;;;;;;5073646;28;20027;-76
2023/08/05 08:24:35;;;;;;;5.00;3.15;;;16.80;99.90;;;;;;5057791;28;20029;-76
2023/08/05 08:27:00;;;;;;;3.25;2.90;;;16.80;99.90;;;;;;5056546;28;20366;-76
2023/08/05 08:29:26;;;;;;;4.40;3.22;;;16.80;99.90;;;;;;5063302;28;20036;-77
2023/08/05 08:31:52;;;;;;;3.42;3.13;;;16.80;99.90;;;;;;5057965;28;20028;-75
2023/08/05 08:34:17;;;;;;;2.58;2.40;;;16.90;99.90;;;;;;5063826;28;20382;-75
2023/08/05 08:36:43;;;;;;;3.85;3.10;;;17.00;99.90;;;;;;5078914;28;20111;-77
2023/08/05 08:39:09;;;;;;;3.90;3.00;;;17.20;99.90;;;;;;5085152;28;20020;-77
2023/08/05 08:41:42;;;;;;;2.33;2.13;;;17.30;99.90;;;;;;5069139;28;20061;-75
2023/08/05 08:44:10;;;;;;;3.08;2.78;;;17.40;99.90;;;;;;5060352;28;20037;-76
2023/08/05 08:46:37;;;;;;;6.32;2.92;;;17.50;99.90;;;;;;5078880;28;20036;-75
2023/08/05 08:49:03;;;;;;;2.80;2.60;;;17.60;99.90;;;;;;5079396;28;20029;-75
2023/08/05 08:51:31;;;;;;;2.35;2.15;;;17.70;99.90;;;;;;5066081;28;20034;-75
2023/08/05 08:53:56;;;;;;;2.55;2.35;;;17.80;99.90;;;;;;5072158;28;20501;-77
2023/08/05 08:56:22;;;;;;;3.97;2.63;;;17.80;99.90;;;;;;5081167;28;20060;-76
2023/08/05 08:58:48;;;;;;;4.70;2.45;;;17.80;99.90;;;;;;5075983;28;20043;-75
2023/08/05 09:01:16;;;;;;;2.70;2.33;;;17.70;99.60;;;;;;5062231;28;20497;-77
2023/08/05 09:03:43;;;;;;;3.60;2.67;;;17.70;99.40;;;;;;5061720;28;20071;-77
2023/08/05 09:06:09;;;;;;;4.57;2.75;;;17.70;99.70;;;;;;5077138;28;20519;-76
2023/08/05 09:08:35;;;;;;;3.45;3.15;;;17.80;99.40;;;;;;5094315;28;20024;-77
2023/08/05 09:11:01;;;;;;;2.55;2.35;;;17.90;99.00;;;;;;5069047;28;20047;-76
2023/08/05 09:13:27;;;;;;;2.80;2.60;;;17.90;98.90;;;;;;5059349;28;20025;-77
2023/08/05 09:15:54;;;;;;;2.65;2.35;;;18.10;98.60;;;;;;5071839;28;20040;-77
2023/08/05 09:18:20;;;;;;;3.47;3.17;;;18.20;98.20;;;;;;5074802;28;20009;-75
2023/08/05 09:20:49;;;;;;;2.58;2.38;;;18.30;97.50;;;;;;5062139;28;20096;-76
2023/08/05 09:23:16;;;;;;;2.45;2.30;;;18.30;97.30;;;;;;5065507;28;20066;-76
2023/08/05 09:25:46;;;;;;;2.90;2.58;;;18.30;97.10;;;;;;5075808;28;20385;-76
2023/08/05 09:28:11;;;;;;;4.05;2.70;;;18.20;97.20;;;;;;5077583;28;20027;-75
2023/08/05 09:30:37;;;;;;;4.53;2.30;;;18.30;97.20;;;;;;5060501;28;20057;-77
2023/08/05 09:33:04;;;;;;;2.70;2.13;;;18.20;96.70;;;;;;5075796;28;20127;-77
2023/08/05 09:35:29;;;;;;;2.38;1.92;;;18.10;97.10;;;;;;5068074;28;20024;-76
2023/08/05 09:37:55;;;;;;;4.10;2.40;;;18.00;97.50;;;;;;5078987;28;20035;-76
2023/08/05 09:40:25;;;;;;;1.80;1.70;;;17.90;98.00;;;;;;5085873;28;20085;-76
2023/08/05 09:42:59;;;;;;;2.72;2.10;;;17.90;98.40;;;;;;5076937;28;20044;-76
2023/08/05 09:45:28;;;;;;;2.40;2.00;;;17.90;98.30;;;;;;5075385;28;20055;-75
2023/08/05 09:48:04;;;;;;;1.90;1.77;;;17.90;98.80;;;;;;5061353;28;20112;-75
2023/08/05 09:50:37;;;;;;;3.38;2.38;;;17.90;99.20;;;;;;5072690;28;20056;-76
2023/08/05 09:53:08;;;;;;;2.03;1.92;;;17.80;99.40;;;;;;5075964;28;20472;-77
2023/08/05 09:55:37;;;;;;;2.33;2.03;;;17.80;99.60;;;;;;5061555;28;20124;-76
2023/08/05 09:58:07;;;;;;;2.25;2.13;;;17.60;99.90;;;;;;5067932;28;20098;-76
2023/08/05 10:00:35;;;;;;;3.13;2.45;;;17.60;99.90;;;;;;5072222;28;20058;-76
2023/08/05 10:03:07;;;;;;;2.42;2.33;;;;;;;;;;5061016;28;20111;-76
2023/08/05 10:05:34;;;;;;;2.60;2.40;;;;;;;;;;5069059;28;20479;-77
2023/08/05 10:08:00;;;;;;;4.00;3.03;;;;;;;;;;5066146;28;20602;-76
2023/08/05 10:10:27;;;;;;;2.13;2.03;;;;;;;;;;5079241;28;20335;-76
2023/08/05 10:12:58;;;;;;;2.42;2.22;;;;;;;;;;5076334;28;20051;-77
2023/08/05 10:15:28;;;;;;;2.58;2.40;;;;;;;;;;5071277;28;20040;-76
2023/08/05 10:17:54;;;;;;;3.13;2.28;;;;;;;;;;5057707;28;20025;-77
2023/08/05 10:20:23;;;;;;;2.88;2.67;;;;;;;;;;5074982;28;20030;-76
2023/08/05 10:23:03;;;;;;;2.35;2.25;;;;;;;;;;5072758;28;20035;-76
2023/08/05 10:25:40;;;;;;;2.63;2.42;;;;;;;;;;5060298;28;20112;-77
2023/08/05 10:28:07;;;;;;;4.13;3.67;;;;;;;;;;5054734;28;20025;-77
2023/08/05 10:30:40;;;;;;;3.50;3.20;;;;;;;;;;5054866;28;20116;-76
2023/08/05 10:33:06;;;;;;;3.25;3.05;;;;;;;;;;5055570;28;20017;-76
2023/08/05 10:35:40;;;;;;;2.88;2.60;;;;;;;;;;5069411;28;20121;-76
2023/08/05 10:38:10;;;;;;;3.08;2.78;;;;;;;;;;5082267;28;20060;-75
2023/08/05 10:40:50;;;;;;;2.92;2.72;;;;;;;;;;5065749;28;20467;-76
2023/08/05 10:43:31;;;;;;;2.92;2.72;;;17.60;99.90;;;;;;5068552;28;20037;-77
2023/08/05 10:46:08;;;;;;;1.95;1.85;;;17.90;99.90;;;;;;5056604;28;20497;-75
2023/08/05 10:48:42;;;;;;;2.10;2.00;;;18.30;99.90;;;;;;5071823;28;20040;-76
2023/08/05 10:51:11;;;;;;;2.60;2.40;;;18.50;99.90;;;;;;5073358;28;20092;-76
2023/08/05 10:53:37;;;;;;;2.00;1.90;;;18.40;99.90;;;;;;5076145;28;20051;-76
2023/08/05 10:56:07;;;;;;;2.38;2.17;;;18.40;99.90;;;;;;5066370;28;20028;-76
2023/08/05 10:58:35;;;;;;;1.90;1.80;;;18.30;99.90;;;;;;5077146;28;20393;-75
2023/08/05 11:01:05;;;;;;;2.00;1.90;;;18.40;99.90;;;;;;5076289;28;20025;-77
2023/08/05 11:03:59;;;;;;;2.05;1.90;;;18.50;99.90;;;;;;5076277;28;20047;-77
2023/08/05 11:06:25;;;;;;;2.15;2.05;;;18.60;99.90;;;;;;5073985;28;20033;-75
2023/08/05 11:08:51;;;;;;;1.98;1.88;;;18.60;99.90;;;;;;5093750;28;20100;-76
2023/08/05 11:11:17;;;;;;;1.98;1.88;;;18.70;99.90;;;;;;5106301;28;20028;-75
2023/08/05 11:13:48;;;;;;;2.33;2.13;;;18.80;99.90;;;;;;5086727;28;20017;-76
2023/08/05 11:16:18;;;;;;;2.90;2.60;;;19.00;99.90;;;;;;5060176;28;20093;-77
2023/08/05 11:18:45;;;;;;;2.08;1.98;;;19.20;99.90;;;;;;5080601;28;20035;-76
2023/08/05 11:21:17;;;;;;;2.00;1.90;;;19.50;99.90;;;;;;5060500;28;20041;-76
2023/08/05 11:23:45;;;;;;;2.70;2.50;;;19.70;99.90;;;;;;5056739;28;20028;-77
2023/08/05 11:26:11;;;;;;;2.55;2.33;;;19.70;99.40;;;;;;5066038;28;20119;-75
2023/08/05 11:28:45;;;;;;;2.80;2.60;;;19.80;98.90;;;;;;5072301;28;20094;-77
2023/08/05 11:31:21;;;;;;;2.70;2.50;;;19.90;98.20;;;;;;5072219;28;20021;-75
2023/08/05 11:33:48;;;;;;;2.10;2.00;;;20.10;97.30;;;;;;5071936;28;20446;-76
2023/08/05 11:36:13;;;;;;;2.15;2.05;;;20.20;96.90;;;;;;5074214;28;20029;-76
2023/08/05 11:38:39;;;;;;;2.00;1.90;;;20.30;96.40;;;;;;5075778;28;20489;-76
2023/08/05 11:41:05;;;;;;;2.53;2.15;;;20.40;96.00;;;;;;5071178;28;20025;-76
2023/08/05 11:43:32;;;;;;;2.10;2.00;;;20.30;95.70;;;;;;5055740;28;20482;-76
2023/08/05 11:45:58;;;;;;;1.83;1.73;;;20.40;96.10;;;;;;5056843;28;20040;-76
2023/08/05 11:48:27;;;;;;;2.20;2.10;;;20.50;95.60;;;;;;5073499;28;20032;-77
2023/08/05 11:51:04;;;;;;;2.25;2.15;;;20.40;95.60;;;;;;5054856;28;20025;-77
2023/08/05 11:53:30;;;;;;;1.90;1.80;;;20.50;95.60;;;;;;5065228;28;20055;-77
2023/08/05 11:55:56;;;;;;;2.45;2.22;;;20.60;95.20;;;;;;5090491;28;20093;-75
2023/08/05 11:58:26;;;;;;;1.60;1.50;;;20.90;95.30;;;;;;5081048;28;20109;-76
2023/08/05 12:00:57;;;;;;;1.95;1.83;;;21.30;93.90;;;;;;5067701;28;20493;-76
2023/08/05 12:03:23;;;;;;;1.65;1.58;;;21.60;93.50;;;;;;5054460;28;20029;-77
2023/08/05 12:05:48;;;;;;;1.65;1.55;;;21.90;92.40;;;;;;5062174;28;20020;-76
2023/08/05 12:08:38;;;;;;;1.10;1.10;;;21.90;91.80;;;;;;5080345;28;20020;-76
2023/08/05 12:11:04;;;;;;;1.73;1.63;;;22.00;91.30;;;;;;5063421;28;20052;-76
2023/08/05 12:13:33;;;;;;;1.80;1.70;;;22.00;90.90;;;;;;5070787;28;20068;-76
2023/08/05 12:15:59;;;;;;;1.42;1.42;;;22.10;90.30;;;;;;5062710;28;20037;-76
2023/08/05 12:18:25;;;;;;;1.50;1.50;;;22.20;89.60;;;;;;5064792;28;20485;-77
2023/08/05 12:20:51;;;;;;;1.38;1.30;;;22.30;89.10;;;;;;5061708;28;20082;-76
2023/08/05 12:23:16;;;;;;;1.45;1.35;;;22.50;88.00;;;;;;5068812;28;20029;-76
2023/08/05 12:25:42;;;;;;;1.35;1.35;;;22.60;87.20;;;;;;5076388;28;20094;-77
2023/08/05 12:28:08;;;;;;;1.95;1.50;;;22.60;85.30;;;;;;5075320;28;20028;-77
2023/08/05 12:30:34;;;;;;;1.60;1.50;;;22.40;85.40;;;;;;5075770;28;20028;-77
2023/08/05 12:32:59;;;;;;;1.63;1.60;;;22.10;85.10;;;;;;5067077;28;20107;-77
2023/08/05 12:35:35;;;;;;;2.00;1.90;;;21.70;85.60;;;;;;5066415;28;20045;-78
2023/08/05 12:38:01;;;;;;;2.00;1.88;;;21.10;86.70;;;;;;5076930;28;20071;-77
2023/08/05 12:40:26;;;;;;;2.05;1.92;;;20.90;89.30;;;;;;5091773;28;20089;-78
2023/08/05 12:42:53;;;;;;;2.10;2.00;;;20.80;90.40;;;;;;5082815;28;20036;-76
2023/08/05 12:45:19;;;;;;;2.30;2.20;;;20.70;90.90;;;;;;5057655;28;20044;-76
2023/08/05 12:47:45;;;;;;;4.25;3.30;;;;;;;;;;5058347;28;20477;-76
2023/08/05 12:50:11;;;;;;;7.05;4.60;;;;;;;;;;5062683;28;20043;-79
2023/08/05 12:52:37;;;;;;;4.60;4.20;;;;;;;;;;5063943;28;20012;-79